Time;durP1;ratioP1;P1;durP2;ratioP2;P2;SDS_P1;SDS_P2;PMS_P1;PMS_P2;Temp;Humidity;BMP_temperature;BMP_pressure;BME280_temperature;BME280_humidity;BME280_pressure;Samples;Min_cycle;Max_cycle;Signal;HPM_P1;HPM_P2
2022/05/22 00:01:37;;;;;;;6.22;1.58;;;13.90;99.90;;;;;;4955773;29;20035;-51
2022/05/22 00:04:03;;;;;;;8.53;1.90;;;13.70;99.90;;;;;;4955643;29;20069;-51
2022/05/22 00:06:29;;;;;;;5.60;2.25;;;13.70;99.90;;;;;;4955841;29;20497;-50
2022/05/22 00:08:55;;;;;;;6.07;2.85;;;13.60;99.90;;;;;;4955769;29;20039;-50
2022/05/22 00:11:22;;;;;;;9.05;2.60;;;13.70;99.90;;;;;;4955874;29;20030;-51
2022/05/22 00:13:49;;;;;;;4.80;2.40;;;13.70;99.90;;;;;;4955328;28;20039;-51
2022/05/22 00:19:00;;;;;;;4.65;2.05;;;13.80;99.90;;;;;;4955687;29;20098;-52
2022/05/22 00:21:26;;;;;;;4.97;2.65;;;13.80;99.90;;;;;;4955886;29;20027;-51
2022/05/22 00:23:51;;;;;;;6.28;2.67;;;13.90;99.90;;;;;;4954965;29;20035;-51
2022/05/22 00:26:17;;;;;;;8.63;2.97;;;13.90;99.90;;;;;;4955489;29;20070;-51
2022/05/22 00:28:43;;;;;;;10.85;3.78;;;13.80;99.90;;;;;;4955172;29;20035;-51
2022/05/22 00:31:09;;;;;;;7.22;3.65;;;13.90;99.90;;;;;;4955603;29;20019;-51
2022/05/22 00:33:35;;;;;;;8.50;4.65;;;13.80;99.90;;;;;;4955297;29;20027;-52
2022/05/22 00:36:01;;;;;;;8.30;3.97;;;13.80;99.90;;;;;;4955016;29;20503;-51
2022/05/22 00:38:26;;;;;;;7.00;3.78;;;13.80;99.90;;;;;;4955227;29;20110;-51
2022/05/22 00:40:53;;;;;;;5.13;3.35;;;13.70;99.90;;;;;;4955217;29;20030;-50
2022/05/22 00:43:32;;;;;;;5.30;3.33;;;13.70;99.90;;;;;;4954602;29;20094;-50
2022/05/22 00:45:59;;;;;;;11.52;4.43;;;13.70;99.90;;;;;;4937826;29;20120;-50
2022/05/22 00:48:27;;;;;;;7.30;4.47;;;13.70;99.90;;;;;;4955056;29;20028;-50
2022/05/22 00:50:59;;;;;;;7.82;3.72;;;13.70;99.90;;;;;;4955125;29;20123;-50
2022/05/22 00:53:26;;;;;;;7.75;3.72;;;13.60;99.90;;;;;;4954758;29;20046;-51
2022/05/22 00:55:52;;;;;;;9.88;3.65;;;13.60;99.90;;;;;;4955083;29;20089;-51
2022/05/22 00:58:24;;;;;;;7.13;3.55;;;13.40;99.90;;;;;;4954500;28;20465;-51
2022/05/22 01:00:50;;;;;;;5.38;2.85;;;13.50;99.90;;;;;;4954734;29;20510;-51
2022/05/22 01:03:31;;;;;;;5.40;2.47;;;13.50;99.90;;;;;;4954670;29;20035;-52
2022/05/22 01:06:06;;;;;;;7.47;4.10;;;13.40;99.90;;;;;;4954820;29;20027;-52
2022/05/22 01:08:34;;;;;;;4.63;2.40;;;13.40;99.90;;;;;;4954822;29;20115;-52
2022/05/22 01:11:03;;;;;;;;;;;13.40;99.90;;;;;;4955085;29;20138;-52
2022/05/22 01:13:52;;;;;;;7.35;2.47;;;13.40;99.90;;;;;;4954666;29;19953;-52
2022/05/22 01:16:19;;;;;;;7.07;3.10;;;13.30;99.90;;;;;;4954657;29;20020;-52
2022/05/22 01:18:51;;;;;;;7.65;2.90;;;13.30;99.90;;;;;;4954721;29;20085;-52
2022/05/22 01:21:21;;;;;;;6.75;2.75;;;13.30;99.90;;;;;;4954570;29;20031;-52
2022/05/22 01:23:47;;;;;;;7.22;2.90;;;13.20;99.90;;;;;;4954109;29;20526;-52
2022/05/22 01:26:13;;;;;;;6.72;3.03;;;13.10;99.90;;;;;;4954316;29;20391;-50
2022/05/22 01:28:39;;;;;;;7.07;3.17;;;13.10;99.90;;;;;;4954286;29;20058;-52
2022/05/22 01:31:05;;;;;;;11.70;3.58;;;13.10;99.90;;;;;;4953991;29;20051;-52
2022/05/22 01:33:34;;;;;;;9.90;3.67;;;13.10;99.90;;;;;;4954262;29;20518;-52
2022/05/22 01:36:00;;;;;;;8.52;3.80;;;13.00;99.90;;;;;;4954396;29;20042;-51
2022/05/22 01:38:26;;;;;;;7.13;3.25;;;13.00;99.90;;;;;;4954206;29;20027;-52
2022/05/22 01:40:52;;;;;;;8.18;3.63;;;13.00;99.90;;;;;;4954088;29;20073;-52
2022/05/22 01:43:18;;;;;;;9.40;3.88;;;12.90;99.90;;;;;;4953949;29;20035;-52
2022/05/22 01:45:44;;;;;;;7.65;3.30;;;12.90;99.90;;;;;;4953936;29;20039;-53
2022/05/22 01:48:10;;;;;;;9.25;3.67;;;12.80;99.90;;;;;;4953254;29;20035;-52
2022/05/22 01:50:38;;;;;;;6.13;3.38;;;12.80;99.90;;;;;;4954015;29;20147;-52
2022/05/22 01:53:05;;;;;;;6.32;3.17;;;12.70;99.90;;;;;;4953719;28;20057;-52
2022/05/22 01:55:30;;;;;;;8.45;3.28;;;12.80;99.90;;;;;;4954026;29;20055;-52
2022/05/22 01:57:56;;;;;;;9.48;3.60;;;12.70;99.90;;;;;;4953699;29;20118;-53
2022/05/22 02:00:24;;;;;;;6.50;3.88;;;12.60;99.90;;;;;;4953768;29;20043;-52
2022/05/22 02:02:50;;;;;;;10.82;3.75;;;12.50;99.90;;;;;;4953434;29;20110;-52
2022/05/22 02:05:19;;;;;;;6.40;3.30;;;12.40;99.90;;;;;;4953847;29;20051;-52
2022/05/22 02:10:31;;;;;;;8.60;3.97;;;11.90;99.90;;;;;;4953820;29;20058;-52
2022/05/22 02:12:58;;;;;;;6.40;3.80;;;11.70;99.90;;;;;;4953314;29;20110;-52
2022/05/22 02:15:24;;;;;;;10.13;4.50;;;11.70;99.90;;;;;;4953751;29;20078;-52
2022/05/22 02:17:49;;;;;;;8.95;4.28;;;11.60;99.90;;;;;;4953373;29;20511;-52
2022/05/22 02:20:16;;;;;;;12.07;4.68;;;11.60;99.90;;;;;;4953494;29;20069;-52
2022/05/22 02:22:51;;;;;;;10.63;3.78;;;11.50;99.90;;;;;;4953282;29;20038;-52
2022/05/22 02:25:20;;;;;;;7.43;4.47;;;11.60;99.90;;;;;;4953510;29;20039;-52
2022/05/22 02:27:46;;;;;;;14.55;4.22;;;11.60;99.90;;;;;;4953272;29;20510;-52
2022/05/22 02:30:15;;;;;;;8.40;4.53;;;11.60;99.90;;;;;;4953633;29;20114;-52
2022/05/22 02:32:40;;;;;;;9.57;4.32;;;11.70;99.90;;;;;;4953070;29;20380;-52
2022/05/22 02:35:10;;;;;;;7.60;4.88;;;11.50;99.90;;;;;;4953507;29;20051;-51
2022/05/22 02:37:49;;;;;;;8.30;4.20;;;11.60;99.90;;;;;;4952754;29;20460;-52
2022/05/22 02:40:18;;;;;;;8.07;4.40;;;11.70;99.90;;;;;;4953472;29;20039;-52
2022/05/22 02:42:48;;;;;;;9.60;4.47;;;11.70;99.90;;;;;;4952989;29;20039;-52
2022/05/22 02:45:16;;;;;;;8.15;4.38;;;11.70;99.90;;;;;;4953266;29;20050;-52
2022/05/22 02:47:42;;;;;;;9.05;4.60;;;11.70;99.90;;;;;;4953241;29;20039;-52
2022/05/22 02:50:10;;;;;;;10.00;4.72;;;11.70;99.90;;;;;;4953235;29;20098;-51
2022/05/22 02:52:36;;;;;;;9.38;4.70;;;11.70;99.90;;;;;;4953311;29;20038;-52
2022/05/22 02:55:02;;;;;;;12.57;4.78;;;11.60;99.90;;;;;;4953173;29;20423;-51
2022/05/22 02:57:28;;;;;;;13.93;5.07;;;11.50;99.90;;;;;;4953306;29;20031;-52
2022/05/22 02:59:55;;;;;;;9.25;5.30;;;11.60;99.90;;;;;;4953117;29;20047;-53
2022/05/22 03:02:21;;;;;;;10.48;4.20;;;11.50;99.90;;;;;;4953080;29;20031;-52
2022/05/22 03:04:48;;;;;;;9.23;4.85;;;11.50;99.90;;;;;;4952826;29;20070;-50
2022/05/22 03:07:16;;;;;;;12.63;5.20;;;11.50;99.90;;;;;;4953045;29;20019;-52
2022/05/22 03:09:43;;;;;;;13.45;5.45;;;11.60;99.90;;;;;;4953172;29;20093;-51
2022/05/22 03:12:20;;;;;;;7.78;4.20;;;11.50;99.90;;;;;;4953204;29;20024;-51
2022/05/22 03:14:51;;;;;;;12.38;5.10;;;11.40;99.90;;;;;;4953016;29;20055;-52
2022/05/22 03:17:17;;;;;;;10.63;5.50;;;11.30;99.90;;;;;;4953023;29;20522;-52
2022/05/22 03:19:43;;;;;;;7.25;4.82;;;11.50;99.90;;;;;;4953643;28;20035;-53
2022/05/22 03:22:11;;;;;;;8.25;4.43;;;11.40;99.90;;;;;;4956692;29;20043;-52
2022/05/22 03:24:37;;;;;;;;;;;11.40;99.90;;;;;;4957046;29;20031;-51
2022/05/22 03:27:05;;;;;;;9.27;4.63;;;11.40;99.90;;;;;;4956521;29;19907;-52
2022/05/22 03:29:30;;;;;;;10.68;5.30;;;11.50;99.90;;;;;;4956812;29;20118;-52
2022/05/22 03:31:56;;;;;;;11.90;5.18;;;11.50;99.90;;;;;;4956573;28;20099;-52
2022/05/22 03:34:22;;;;;;;10.35;4.90;;;11.40;99.90;;;;;;4956334;29;20050;-53
2022/05/22 03:36:48;;;;;;;11.02;4.15;;;11.50;99.90;;;;;;4956461;29;20467;-52
2022/05/22 03:39:14;;;;;;;11.93;5.03;;;11.50;99.90;;;;;;4955977;29;20031;-52
2022/05/22 03:41:41;;;;;;;12.15;4.45;;;11.60;99.90;;;;;;4956474;28;20066;-53
2022/05/22 03:44:07;;;;;;;15.15;5.25;;;11.60;99.90;;;;;;4956276;29;20035;-52
2022/05/22 03:46:33;;;;;;;14.93;5.00;;;11.60;99.90;;;;;;4955901;29;20058;-52
2022/05/22 03:48:59;;;;;;;9.15;4.75;;;11.70;99.90;;;;;;4956290;29;20106;-52
2022/05/22 03:51:25;;;;;;;9.23;4.45;;;11.70;99.90;;;;;;4956323;29;20102;-51
2022/05/22 03:53:51;;;;;;;11.57;5.10;;;11.80;99.90;;;;;;4955630;29;20047;-51
2022/05/22 03:56:17;;;;;;;10.35;5.00;;;11.80;99.90;;;;;;4956219;29;20036;-52
2022/05/22 03:58:44;;;;;;;10.90;5.15;;;11.90;99.90;;;;;;4956019;29;20038;-52
2022/05/22 04:01:10;;;;;;;13.60;5.03;;;12.00;99.90;;;;;;4956001;29;20126;-52
2022/05/22 04:03:36;;;;;;;13.63;5.03;;;12.10;99.90;;;;;;4955681;29;20035;-52
2022/05/22 04:06:07;;;;;;;8.05;4.13;;;12.10;99.90;;;;;;4956158;29;20551;-52
2022/05/22 04:08:33;;;;;;;11.38;3.97;;;12.10;99.90;;;;;;4955648;29;20038;-52
2022/05/22 04:11:07;;;;;;;10.32;4.32;;;12.10;99.90;;;;;;4956013;29;20382;-52
2022/05/22 04:13:33;;;;;;;15.55;5.00;;;12.10;99.90;;;;;;4938473;29;20031;-52
2022/05/22 04:15:59;;;;;;;10.02;4.65;;;12.20;99.90;;;;;;4955990;29;20034;-53
2022/05/22 04:18:25;;;;;;;10.70;4.85;;;12.30;99.90;;;;;;4956044;29;20027;-52
2022/05/22 04:20:51;;;;;;;11.30;5.15;;;12.20;99.90;;;;;;4955372;29;20027;-52
2022/05/22 04:26:01;;;;;;;8.95;5.43;;;12.30;99.90;;;;;;4955859;29;20423;-52
2022/05/22 04:28:29;;;;;;;10.85;4.75;;;12.30;99.90;;;;;;4938009;29;20027;-52
2022/05/22 04:30:55;;;;;;;9.18;4.85;;;12.40;99.90;;;;;;4955370;28;20034;-52
2022/05/22 04:33:21;;;;;;;11.82;4.78;;;12.40;99.90;;;;;;4955173;29;20031;-53
2022/05/22 04:35:47;;;;;;;9.18;4.57;;;12.50;99.90;;;;;;4955468;29;20034;-51
2022/05/22 04:38:13;;;;;;;11.65;4.60;;;12.60;99.90;;;;;;4955231;29;20106;-51
2022/05/22 04:40:39;;;;;;;11.10;5.00;;;12.60;99.90;;;;;;4955112;29;20027;-52
2022/05/22 04:43:06;;;;;;;11.25;4.65;;;12.70;99.90;;;;;;4955484;29;20039;-53
2022/05/22 04:45:34;;;;;;;11.18;4.72;;;12.90;99.90;;;;;;4955149;29;20020;-52
2022/05/22 04:48:00;;;;;;;10.32;3.92;;;12.90;99.90;;;;;;4955013;29;20035;-52
2022/05/22 04:50:26;;;;;;;9.25;3.80;;;13.10;99.90;;;;;;4955381;29;20023;-52
2022/05/22 04:52:52;;;;;;;10.15;4.22;;;13.10;99.90;;;;;;4954780;28;20028;-52
2022/05/22 04:55:18;;;;;;;8.15;3.40;;;13.20;99.90;;;;;;4937864;29;20042;-52
2022/05/22 04:57:43;;;;;;;8.82;3.30;;;13.30;99.90;;;;;;4955055;29;20027;-51
2022/05/22 05:00:11;;;;;;;7.80;3.13;;;13.40;99.90;;;;;;4954780;29;20110;-52
2022/05/22 05:02:38;;;;;;;8.95;2.83;;;13.40;99.90;;;;;;4937743;29;20047;-52
2022/05/22 05:05:08;;;;;;;5.80;2.72;;;13.40;99.90;;;;;;4955012;29;20039;-52
2022/05/22 05:07:37;;;;;;;8.60;2.67;;;13.40;99.90;;;;;;4954648;29;20031;-51
2022/05/22 05:10:03;;;;;;;7.53;2.45;;;13.40;99.90;;;;;;4954520;29;20422;-52
2022/05/22 05:12:28;;;;;;;11.75;2.50;;;13.40;99.90;;;;;;4954825;29;20122;-52
2022/05/22 05:14:54;;;;;;;6.03;2.50;;;13.50;99.90;;;;;;4954573;29;20498;-52
2022/05/22 05:17:20;;;;;;;9.18;2.30;;;13.50;99.90;;;;;;4954852;29;20101;-53
2022/05/22 05:19:46;;;;;;;5.25;1.90;;;13.50;99.90;;;;;;4954428;29;20050;-52
2022/05/22 05:22:12;;;;;;;9.82;2.17;;;13.50;99.90;;;;;;4954361;28;20522;-53
2022/05/22 05:24:38;;;;;;;14.25;2.70;;;13.50;99.90;;;;;;4954428;29;20122;-52
2022/05/22 05:27:04;;;;;;;10.00;2.75;;;13.50;99.90;;;;;;4937163;29;20038;-52
2022/05/22 05:29:30;;;;;;;7.55;2.35;;;13.50;99.90;;;;;;4953980;29;20495;-51
2022/05/22 05:31:56;;;;;;;8.02;2.10;;;13.50;99.90;;;;;;4954523;29;20031;-52
2022/05/22 05:34:22;;;;;;;6.90;2.20;;;13.40;99.90;;;;;;4954257;29;20047;-52
2022/05/22 05:36:49;;;;;;;9.95;2.17;;;13.30;99.90;;;;;;4954558;29;20093;-52
2022/05/22 05:39:14;;;;;;;8.52;2.08;;;13.30;99.90;;;;;;4953796;29;20036;-52
2022/05/22 05:41:40;;;;;;;4.95;2.33;;;13.30;99.90;;;;;;4954460;29;20114;-51
2022/05/22 05:44:07;;;;;;;8.77;2.65;;;13.30;99.90;;;;;;4953964;28;20047;-50
2022/05/22 05:46:34;;;;;;;9.70;2.17;;;13.30;99.90;;;;;;4954112;29;20395;-52
2022/05/22 05:49:00;;;;;;;6.35;2.13;;;13.30;99.90;;;;;;4953840;29;20028;-51
2022/05/22 05:51:26;;;;;;;8.82;2.47;;;13.30;99.90;;;;;;4936833;29;20031;-52
2022/05/22 05:53:52;;;;;;;11.48;2.80;;;13.30;99.90;;;;;;4953986;29;20043;-53
2022/05/22 05:56:17;;;;;;;7.35;2.30;;;13.30;99.90;;;;;;4953900;29;20074;-52
2022/05/22 05:58:43;;;;;;;4.75;2.10;;;13.40;99.90;;;;;;4953655;29;20030;-52
2022/05/22 06:01:14;;;;;;;8.18;2.53;;;13.40;99.90;;;;;;4953636;29;20051;-52
2022/05/22 06:03:40;;;;;;;9.05;2.83;;;13.50;99.90;;;;;;4953684;29;20067;-52
2022/05/22 06:06:07;;;;;;;7.30;2.35;;;13.50;99.90;;;;;;4953519;28;20510;-53
2022/05/22 06:08:33;;;;;;;8.15;2.70;;;13.70;99.90;;;;;;4953610;29;20031;-52
2022/05/22 06:10:59;;;;;;;9.73;3.22;;;13.80;99.90;;;;;;4953996;28;20530;-52
2022/05/22 06:13:25;;;;;;;7.20;2.92;;;13.90;99.90;;;;;;4953540;28;20031;-52
2022/05/22 06:15:52;;;;;;;8.15;2.45;;;14.00;99.90;;;;;;4953667;28;20495;-52
2022/05/22 06:18:19;;;;;;;9.77;2.72;;;14.00;99.90;;;;;;4953237;29;20023;-53
2022/05/22 06:20:45;;;;;;;7.30;2.20;;;14.10;99.90;;;;;;4953557;29;20059;-51
2022/05/22 06:23:11;;;;;;;7.55;3.42;;;14.00;99.90;;;;;;4953482;29;20389;-51
2022/05/22 06:25:37;;;;;;;17.95;3.80;;;14.20;99.90;;;;;;4953336;29;20033;-51
2022/05/22 06:28:02;;;;;;;11.85;3.30;;;14.20;99.90;;;;;;4953233;29;20034;-52
2022/05/22 06:30:28;;;;;;;6.10;2.72;;;14.30;99.90;;;;;;4953380;29;20031;-51
2022/05/22 06:32:54;;;;;;;12.40;2.58;;;14.20;99.90;;;;;;4953371;29;20153;-52
2022/05/22 06:35:20;;;;;;;6.18;2.20;;;14.30;99.90;;;;;;4953124;29;20027;-52
2022/05/22 06:37:46;;;;;;;12.07;3.70;;;14.30;99.90;;;;;;4953318;28;20051;-51
2022/05/22 06:40:13;;;;;;;5.32;2.20;;;14.30;99.90;;;;;;4953484;29;20446;-51
2022/05/22 06:42:45;;;;;;;11.68;3.40;;;14.30;99.90;;;;;;4953232;29;20035;-53
2022/05/22 06:45:17;;;;;;;9.38;1.95;;;14.30;99.90;;;;;;4953547;29;20458;-51
2022/05/22 06:47:44;;;;;;;7.82;1.70;;;14.40;99.90;;;;;;4953025;29;20038;-50
2022/05/22 06:50:13;;;;;;;11.88;2.13;;;14.40;99.90;;;;;;4953108;29;20106;-51
2022/05/22 06:52:39;;;;;;;7.60;1.95;;;14.40;99.90;;;;;;4953234;29;20041;-51
2022/05/22 06:55:05;;;;;;;6.68;1.80;;;14.50;99.90;;;;;;4954431;28;20310;-53
2022/05/22 06:57:32;;;;;;;6.40;1.65;;;14.60;99.90;;;;;;4957073;29;20102;-52
2022/05/22 06:59:59;;;;;;;7.20;1.60;;;14.80;99.90;;;;;;4956853;29;20047;-53
2022/05/22 07:02:29;;;;;;;6.03;1.90;;;14.70;99.90;;;;;;4956990;29;20102;-51
2022/05/22 07:04:56;;;;;;;8.77;1.80;;;14.80;99.90;;;;;;4957147;29;20067;-53
2022/05/22 07:07:22;;;;;;;8.05;2.40;;;14.80;99.90;;;;;;4957241;29;20074;-53
2022/05/22 07:09:48;;;;;;;4.57;1.75;;;14.80;99.90;;;;;;4956630;28;20031;-52
2022/05/22 07:12:15;;;;;;;5.10;1.20;;;14.70;99.90;;;;;;4957006;29;20042;-51
2022/05/22 07:14:42;;;;;;;9.07;1.70;;;14.90;99.90;;;;;;4956536;29;20097;-52
2022/05/22 07:17:10;;;;;;;9.33;2.07;;;15.00;99.90;;;;;;4956955;28;20027;-52
2022/05/22 07:19:37;;;;;;;6.70;1.70;;;15.20;99.90;;;;;;4956563;29;20055;-51
2022/05/22 07:22:04;;;;;;;9.82;1.90;;;15.20;99.90;;;;;;4956623;29;20426;-50
2022/05/22 07:24:30;;;;;;;4.60;1.33;;;15.30;99.90;;;;;;4956356;28;20143;-51
2022/05/22 07:26:56;;;;;;;3.95;1.40;;;15.20;99.90;;;;;;4956593;29;20102;-51
2022/05/22 07:29:22;;;;;;;6.32;2.35;;;15.30;99.90;;;;;;4956285;29;20498;-51
2022/05/22 07:31:47;;;;;;;5.22;1.50;;;15.30;99.90;;;;;;4956633;29;20031;-52
2022/05/22 07:34:13;;;;;;;6.85;2.00;;;15.30;99.90;;;;;;4956353;29;20555;-51
2022/05/22 07:36:39;;;;;;;5.07;1.58;;;15.50;99.90;;;;;;4956624;29;20027;-51
2022/05/22 07:39:05;;;;;;;4.35;1.50;;;15.50;99.90;;;;;;4955945;28;20059;-52
2022/05/22 07:41:31;;;;;;;6.73;1.87;;;15.50;99.90;;;;;;4956385;29;20043;-51
2022/05/22 07:43:58;;;;;;;9.30;1.70;;;15.40;99.90;;;;;;4955908;29;20038;-51
2022/05/22 07:46:24;;;;;;;13.77;1.80;;;15.40;99.90;;;;;;4956400;28;20546;-53
2022/05/22 07:48:50;;;;;;;7.37;2.37;;;15.20;99.90;;;;;;4955908;29;20039;-51
2022/05/22 07:51:16;;;;;;;5.93;1.75;;;15.20;99.90;;;;;;4956041;29;20043;-52
2022/05/22 07:53:42;;;;;;;6.18;1.90;;;15.20;99.90;;;;;;4956154;29;20034;-53
2022/05/22 07:56:08;;;;;;;6.93;1.80;;;15.10;99.90;;;;;;4955990;29;20102;-52
2022/05/22 07:58:35;;;;;;;11.98;2.50;;;15.10;99.90;;;;;;4955618;29;20115;-52
2022/05/22 08:01:01;;;;;;;10.35;1.80;;;15.20;99.90;;;;;;4955854;29;20266;-52
2022/05/22 08:03:27;;;;;;;7.03;2.00;;;15.10;99.90;;;;;;4955825;29;20039;-52
2022/05/22 08:05:55;;;;;;;11.40;2.13;;;15.20;99.90;;;;;;4955301;28;20357;-52
2022/05/22 08:08:21;;;;;;;7.07;2.03;;;15.20;99.90;;;;;;4954882;28;20055;-50
2022/05/22 08:10:47;;;;;;;5.55;1.50;;;15.10;99.90;;;;;;4955659;29;20383;-52
2022/05/22 08:13:13;;;;;;;6.53;1.60;;;15.10;99.90;;;;;;4956018;29;20531;-51
2022/05/22 08:15:41;;;;;;;6.03;1.53;;;15.00;99.90;;;;;;4956051;29;20027;-51
2022/05/22 08:18:08;;;;;;;7.05;1.63;;;15.00;99.90;;;;;;4955502;29;20430;-51
2022/05/22 08:20:36;;;;;;;8.43;2.20;;;15.10;99.90;;;;;;4955879;29;20102;-52
2022/05/22 08:23:06;;;;;;;8.73;2.20;;;15.30;99.90;;;;;;4955640;29;20046;-52
2022/05/22 08:25:32;;;;;;;5.45;1.70;;;15.60;99.90;;;;;;4938001;29;20024;-51
2022/05/22 08:27:58;;;;;;;6.65;1.20;;;15.80;99.90;;;;;;4955696;29;20032;-53
2022/05/22 08:30:28;;;;;;;7.60;2.60;;;15.80;99.90;;;;;;4955530;29;20042;-52
2022/05/22 08:32:54;;;;;;;5.75;1.50;;;15.90;99.90;;;;;;4955379;29;20065;-52
2022/05/22 08:35:27;;;;;;;8.60;1.48;;;16.00;99.90;;;;;;4955122;29;20404;-52
2022/05/22 08:37:53;;;;;;;6.65;1.75;;;16.20;99.90;;;;;;4955272;29;20087;-51
2022/05/22 08:40:22;;;;;;;5.05;1.30;;;16.50;99.90;;;;;;4955077;29;20036;-51
2022/05/22 08:43:03;;;;;;;5.70;1.00;;;16.60;99.90;;;;;;4955183;29;20039;-52
2022/05/22 08:45:33;;;;;;;5.88;1.55;;;16.80;99.90;;;;;;4954955;29;20035;-52
2022/05/22 08:48:20;;;;;;;5.68;1.38;;;16.90;99.90;;;;;;4955068;29;20387;-52
2022/05/22 08:50:48;;;;;;;9.02;1.48;;;17.00;99.90;;;;;;4955301;29;20067;-53
2022/05/22 08:53:59;;;;;;;7.35;1.70;;;17.00;99.90;;;;;;4955174;29;20082;-52
2022/05/22 08:59:34;;;;;;;10.32;1.80;;;16.40;99.90;;;;;;4954979;29;20467;-52
2022/05/22 09:02:21;;;;;;;5.05;1.50;;;16.20;99.90;;;;;;4955052;29;20501;-51
2022/05/22 09:04:52;;;;;;;7.65;1.52;;;15.90;99.90;;;;;;4954705;29;20047;-53
2022/05/22 09:07:40;;;;;;;3.45;1.30;;;15.80;99.90;;;;;;4954804;29;20023;-52
2022/05/22 09:10:37;;;;;;;9.05;1.55;;;15.90;99.90;;;;;;4955127;29;20078;-52
2022/05/22 09:13:32;;;;;;;6.32;1.58;;;16.10;99.90;;;;;;4954748;29;20525;-52
2022/05/22 09:16:02;;;;;;;7.70;1.95;;;16.30;99.90;;;;;;4940847;29;20054;-52
2022/05/22 09:18:41;;;;;;;5.47;1.30;;;16.20;99.90;;;;;;4954090;28;20476;-52
2022/05/22 09:21:10;;;;;;;7.07;1.80;;;16.10;99.90;;;;;;4954665;29;20427;-51
2022/05/22 09:23:57;;;;;;;4.93;1.38;;;15.80;99.90;;;;;;4954289;29;20058;-53
2022/05/22 09:26:41;;;;;;;2.25;1.02;;;15.80;99.90;;;;;;4954273;29;20019;-50
2022/05/22 09:29:07;;;;;;;4.60;1.33;;;16.00;99.90;;;;;;4954290;29;20038;-53
2022/05/22 09:32:10;;;;;;;8.45;1.52;;;16.40;99.90;;;;;;4954369;29;20027;-52
2022/05/22 09:35:08;;;;;;;4.22;0.90;;;16.80;99.90;;;;;;4953945;29;20034;-52
2022/05/22 09:37:49;;;;;;;6.70;1.15;;;17.00;98.40;;;;;;4954307;29;20086;-52
2022/05/22 09:40:18;;;;;;;5.57;1.15;;;17.10;97.10;;;;;;4954187;29;20543;-52
2022/05/22 09:43:14;;;;;;;6.03;1.52;;;17.10;98.60;;;;;;4953479;29;20424;-52
2022/05/22 09:45:50;;;;;;;4.20;0.60;;;17.10;97.40;;;;;;4953936;29;20403;-51
2022/05/22 09:48:15;;;;;;;10.98;1.45;;;16.80;94.50;;;;;;4953957;29;20039;-52
2022/05/22 09:51:14;;;;;;;9.73;1.00;;;16.90;95.30;;;;;;4953991;29;20035;-53
2022/05/22 09:53:58;;;;;;;7.93;1.88;;;16.70;94.40;;;;;;4953906;29;20369;-51
2022/05/22 09:56:38;;;;;;;4.03;0.98;;;16.50;93.80;;;;;;4953704;29;20551;-52
2022/05/22 09:59:32;;;;;;;3.75;0.90;;;16.60;94.70;;;;;;4954142;29;20062;-52
2022/05/22 10:02:04;;;;;;;5.55;0.98;;;16.70;96.00;;;;;;4953938;29;20035;-52
2022/05/22 10:04:42;;;;;;;12.25;1.40;;;16.90;93.20;;;;;;4953688;29;20062;-52
2022/05/22 10:07:41;;;;;;;2.05;1.02;;;17.00;93.60;;;;;;4953820;29;20553;-52
2022/05/22 10:10:25;;;;;;;12.23;1.25;;;17.20;94.00;;;;;;4953475;29;20039;-52
2022/05/22 10:13:19;;;;;;;8.48;1.58;;;17.00;92.90;;;;;;4953484;29;20031;-51
2022/05/22 10:15:52;;;;;;;5.05;1.20;;;17.20;96.70;;;;;;4954142;29;20591;-52
2022/05/22 10:18:31;;;;;;;8.88;1.23;;;17.60;96.90;;;;;;4953595;29;20038;-52
2022/05/22 10:21:13;;;;;;;2.20;1.08;;;17.40;94.60;;;;;;4953647;29;20146;-52
2022/05/22 10:24:03;;;;;;;3.38;0.80;;;17.80;93.90;;;;;;4953565;29;20471;-53
2022/05/22 10:26:34;;;;;;;5.25;1.23;;;17.70;91.10;;;;;;4953059;29;20050;-52
2022/05/22 10:29:13;;;;;;;1.85;0.70;;;17.60;90.20;;;;;;4952977;28;20713;-52
2022/05/22 10:31:48;;;;;;;3.45;1.05;;;18.10;90.70;;;;;;4953567;29;20082;-51
2022/05/22 10:34:17;;;;;;;5.82;1.05;;;17.90;90.90;;;;;;4953243;29;20027;-54
2022/05/22 10:36:52;;;;;;;7.97;1.40;;;17.80;90.10;;;;;;4953157;29;20383;-52
2022/05/22 10:39:19;;;;;;;4.35;1.10;;;17.90;89.80;;;;;;4953298;29;20543;-53
2022/05/22 10:44:37;;;;;;;4.45;0.90;;;18.00;90.20;;;;;;4953275;29;19921;-51
2022/05/22 10:47:03;;;;;;;4.10;1.27;;;18.10;90.10;;;;;;4953183;29;20062;-52
2022/05/22 10:49:45;;;;;;;2.90;0.80;;;18.00;89.40;;;;;;4952686;29;20391;-52
2022/05/22 10:52:24;;;;;;;2.25;0.63;;;18.00;89.80;;;;;;4953342;29;20027;-52
2022/05/22 10:54:54;;;;;;;4.75;1.33;;;18.30;91.00;;;;;;4953180;29;20055;-51
2022/05/22 10:57:30;;;;;;;5.28;0.95;;;18.40;83.80;;;;;;4952919;29;20289;-51
2022/05/22 10:59:56;;;;;;;8.57;0.95;;;18.10;81.80;;;;;;4952794;29;20507;-52
2022/05/22 11:02:23;;;;;;;4.00;0.80;;;17.90;82.60;;;;;;4952921;29;20051;-53
2022/05/22 11:04:51;;;;;;;4.75;0.90;;;17.90;83.20;;;;;;4935862;29;20024;-51
2022/05/22 11:07:42;;;;;;;4.88;0.70;;;17.80;83.90;;;;;;4935971;29;20034;-51
2022/05/22 11:10:13;;;;;;;3.45;0.93;;;17.90;85.80;;;;;;4953142;29;20062;-52
2022/05/22 11:12:39;;;;;;;4.72;1.45;;;18.10;86.50;;;;;;4952869;29;20034;-53
2022/05/22 11:15:23;;;;;;;6.25;0.93;;;18.30;87.80;;;;;;4953159;29;20023;-51
2022/05/22 11:18:00;;;;;;;8.98;1.13;;;18.40;86.60;;;;;;4952663;29;20090;-51
2022/05/22 11:20:25;;;;;;;3.20;0.93;;;18.30;80.90;;;;;;4953046;29;20047;-52
2022/05/22 11:23:22;;;;;;;3.63;0.90;;;18.20;80.00;;;;;;4953362;29;20074;-51
2022/05/22 11:26:25;;;;;;;4.45;1.00;;;18.20;81.70;;;;;;4952653;29;20031;-51
2022/05/22 11:29:12;;;;;;;4.05;1.30;;;18.50;80.40;;;;;;4952381;29;20039;-51
2022/05/22 11:31:57;;;;;;;2.47;0.73;;;18.90;77.30;;;;;;4952992;29;20062;-53
2022/05/22 11:34:28;;;;;;;3.10;0.88;;;18.90;76.80;;;;;;4952657;29;20020;-52
2022/05/22 11:37:06;;;;;;;4.93;0.80;;;19.00;77.70;;;;;;4952818;29;20071;-51
2022/05/22 11:40:05;;;;;;;4.00;0.68;;;19.40;74.90;;;;;;4952656;29;20086;-53
2022/05/22 11:42:35;;;;;;;4.18;0.80;;;19.70;72.70;;;;;;4955712;28;20028;-51
2022/05/22 11:45:22;;;;;;;2.13;0.63;;;20.00;72.20;;;;;;4956315;29;20039;-52
2022/05/22 11:48:00;;;;;;;2.47;0.50;;;19.90;69.10;;;;;;4955995;29;20122;-52
2022/05/22 11:51:02;;;;;;;5.07;1.23;;;20.00;71.80;;;;;;4956050;29;20475;-51
2022/05/22 11:53:34;;;;;;;3.20;0.80;;;20.00;71.60;;;;;;4955836;29;20095;-53
2022/05/22 11:56:24;;;;;;;3.08;0.80;;;19.80;70.70;;;;;;4983631;23;20042;-86
2022/05/22 11:59:39;;;;;;;5.28;1.08;;;19.60;69.40;;;;;;4945512;28;20077;-87
2022/05/22 12:02:41;;;;;;;5.22;0.77;;;19.20;69.20;;;;;;4929320;28;20038;-86
2022/05/22 12:05:06;;;;;;;2.00;0.57;;;18.70;71.70;;;;;;4973953;28;20043;-86
2022/05/22 12:07:43;;;;;;;3.05;0.80;;;18.60;75.10;;;;;;4956430;28;20119;-87
2022/05/22 12:10:26;;;;;;;3.17;0.77;;;18.40;74.90;;;;;;4956491;28;20063;-86
2022/05/22 12:13:05;;;;;;;4.05;0.70;;;18.30;74.20;;;;;;4956232;28;20039;-84
2022/05/22 12:15:43;;;;;;;1.95;0.70;;;18.30;75.50;;;;;;4956794;28;20025;-88
2022/05/22 12:18:15;;;;;;;;;;;18.50;75.00;;;;;;4975839;28;20023;-87
2022/05/22 12:20:48;;;;;;;3.97;0.90;;;19.00;74.80;;;;;;4981270;28;19909;-84
2022/05/22 12:24:02;;;;;;;1.42;0.63;;;19.50;74.70;;;;;;4980973;28;20034;-87
2022/05/22 12:26:30;;;;;;;1.67;0.60;;;19.50;73.50;;;;;;4931499;28;20407;-84
2022/05/22 12:29:02;;;;;;;2.03;0.50;;;19.70;70.10;;;;;;4937034;29;20035;-86
2022/05/22 12:31:41;;;;;;;2.78;0.65;;;19.70;70.60;;;;;;4953894;28;20027;-87
2022/05/22 12:34:14;;;;;;;2.20;0.60;;;19.60;73.30;;;;;;4936520;29;20031;-84
2022/05/22 12:36:44;;;;;;;2.58;0.80;;;19.90;72.90;;;;;;4937020;29;20047;-87
2022/05/22 12:39:13;;;;;;;2.85;1.23;;;20.10;72.70;;;;;;4936610;29;20034;-87
2022/05/22 12:42:01;;;;;;;2.53;0.50;;;20.50;73.00;;;;;;4954071;28;20019;-86
2022/05/22 12:44:28;;;;;;;4.32;0.82;;;20.60;72.90;;;;;;4936417;29;20118;-86
2022/05/22 12:46:58;;;;;;;3.20;0.90;;;20.80;71.80;;;;;;4936728;29;20368;-85
2022/05/22 12:49:30;;;;;;;35.40;4.45;;;20.80;71.80;;;;;;4953763;29;20024;-84
2022/05/22 12:52:01;;;;;;;6.00;1.50;;;20.60;69.80;;;;;;4954319;28;20027;-87
2022/05/22 12:54:38;;;;;;;5.40;1.23;;;20.10;68.20;;;;;;4938728;29;20027;-85
2022/05/22 12:57:16;;;;;;;4.13;0.75;;;19.90;70.60;;;;;;4939223;29;20039;-85
2022/05/22 12:59:55;;;;;;;2.00;0.63;;;19.50;69.50;;;;;;4937926;29;20023;-85
2022/05/22 13:02:36;;;;;;;1.70;0.63;;;19.50;70.00;;;;;;4938326;29;20086;-86
2022/05/22 13:05:13;;;;;;;3.03;0.50;;;19.90;70.80;;;;;;4956040;29;20069;-87
2022/05/22 13:07:40;;;;;;;3.72;0.60;;;20.20;71.20;;;;;;4939180;29;20094;-86
2022/05/22 13:10:29;;;;;;;1.80;0.90;;;20.50;70.50;;;;;;4955140;29;20062;-85
2022/05/22 13:13:01;;;;;;;1.08;0.63;;;20.40;69.60;;;;;;4956026;28;20027;-84
2022/05/22 13:15:31;;;;;;;2.78;0.70;;;20.40;70.40;;;;;;4937954;29;20027;-85
2022/05/22 13:18:24;;;;;;;2.30;0.77;;;19.90;70.30;;;;;;4937734;29;20488;-86
2022/05/22 13:20:56;;;;;;;2.35;0.55;;;19.80;71.10;;;;;;4943900;29;20038;-86